Time;durP1;ratioP1;P1;durP2;ratioP2;P2;SDS_P1;SDS_P2;PMS_P1;PMS_P2;Temp;Humidity;BMP_temperature;BMP_pressure;BME280_temperature;BME280_humidity;BME280_pressure;Samples;Min_cycle;Max_cycle;Signal;HPM_P1;HPM_P2
2022/07/12 00:01:04;;;;;;;0.50;0.30;;;16.10;99.90;;;;;;5043712;28;20062;-80
2022/07/12 00:03:30;;;;;;;0.52;0.25;;;16.00;99.90;;;;;;5047014;28;20032;-80
2022/07/12 00:05:57;;;;;;;0.65;0.30;;;16.00;99.90;;;;;;5048346;28;20033;-80
2022/07/12 00:08:23;;;;;;;0.70;0.22;;;16.10;99.90;;;;;;5047777;28;20131;-80
2022/07/12 00:10:48;;;;;;;0.57;0.30;;;16.00;99.90;;;;;;5045316;28;20041;-80
2022/07/12 00:13:15;;;;;;;0.80;0.30;;;16.00;99.90;;;;;;5045680;28;20107;-80
2022/07/12 00:15:41;;;;;;;0.60;0.30;;;15.90;99.90;;;;;;5046832;28;20036;-80
2022/07/12 00:18:07;;;;;;;0.40;0.20;;;15.90;99.90;;;;;;5046119;28;20063;-80
2022/07/12 00:20:33;;;;;;;0.40;0.20;;;15.80;99.90;;;;;;5047793;28;20037;-79
2022/07/12 00:22:59;;;;;;;0.65;0.30;;;15.80;99.90;;;;;;5048301;28;20129;-80
2022/07/12 00:25:25;;;;;;;1.23;0.40;;;15.70;99.90;;;;;;5048621;28;20426;-80
2022/07/12 00:27:52;;;;;;;0.60;0.25;;;15.70;99.90;;;;;;5043768;28;20029;-80
2022/07/12 00:30:17;;;;;;;0.52;0.25;;;15.60;99.90;;;;;;5044234;28;20037;-80
2022/07/12 00:32:43;;;;;;;0.55;0.30;;;15.60;99.90;;;;;;5029803;28;20041;-79
2022/07/12 00:35:09;;;;;;;2.08;0.30;;;15.50;99.90;;;;;;5030968;28;20039;-80
2022/07/12 00:37:35;;;;;;;0.28;0.17;;;15.40;99.90;;;;;;5063507;28;20147;-80
2022/07/12 00:40:00;;;;;;;0.80;0.30;;;15.40;99.90;;;;;;5047075;28;20098;-80
2022/07/12 00:42:27;;;;;;;0.93;0.30;;;15.30;99.90;;;;;;5040390;28;20422;-79
2022/07/12 00:44:52;;;;;;;0.20;0.17;;;15.30;99.90;;;;;;5045750;28;20049;-80
2022/07/12 00:47:45;;;;;;;0.47;0.30;;;15.20;99.90;;;;;;5046611;28;20047;-80
2022/07/12 00:50:16;;;;;;;0.30;0.10;;;15.20;99.90;;;;;;5028445;28;20048;-80
2022/07/12 00:52:44;;;;;;;0.25;0.10;;;15.20;99.90;;;;;;5044253;28;20064;-80
2022/07/12 00:55:10;;;;;;;0.10;0.10;;;15.20;99.90;;;;;;5043445;28;20100;-79
2022/07/12 00:57:37;;;;;;;0.10;0.08;;;15.10;99.90;;;;;;5044071;28;20036;-79
2022/07/12 01:00:08;;;;;;;0.70;0.32;;;15.10;99.90;;;;;;5043377;28;20044;-80
2022/07/12 01:02:35;;;;;;;0.38;0.22;;;15.00;99.90;;;;;;5045695;28;20041;-79
2022/07/12 01:05:02;;;;;;;0.85;0.40;;;14.90;99.90;;;;;;5045687;28;20060;-79
2022/07/12 01:07:28;;;;;;;0.43;0.22;;;14.90;99.90;;;;;;5045920;28;20035;-80
2022/07/12 01:09:54;;;;;;;0.93;0.40;;;14.90;99.90;;;;;;5044938;28;20474;-80
2022/07/12 01:12:21;;;;;;;1.98;0.30;;;14.90;99.90;;;;;;5044738;28;20498;-79
2022/07/12 01:14:49;;;;;;;0.22;0.10;;;15.00;99.90;;;;;;5046274;28;20422;-79
2022/07/12 01:17:15;;;;;;;0.77;0.20;;;14.90;99.90;;;;;;5044020;28;20037;-80
2022/07/12 01:19:41;;;;;;;0.28;0.20;;;14.90;99.90;;;;;;5045505;28;20037;-80
2022/07/12 01:22:11;;;;;;;0.65;0.30;;;14.80;99.90;;;;;;5042077;28;20044;-80
2022/07/12 01:24:37;;;;;;;0.10;0.10;;;14.80;99.90;;;;;;5046710;28;20068;-80
2022/07/12 01:27:04;;;;;;;1.45;0.57;;;14.70;99.90;;;;;;5045048;28;20142;-79
2022/07/12 01:29:30;;;;;;;0.57;0.15;;;14.70;99.90;;;;;;5029422;28;20086;-79
2022/07/12 01:32:24;;;;;;;0.38;0.17;;;14.60;99.90;;;;;;5044932;28;20033;-80
2022/07/12 01:34:42;;;;;;;0.70;0.20;;;14.50;99.90;;;;;;5043703;28;20187;-80
2022/07/12 01:37:09;;;;;;;0.80;0.30;;;14.40;99.90;;;;;;5042172;28;20090;-80
2022/07/12 01:39:35;;;;;;;0.20;0.10;;;14.40;99.90;;;;;;5047337;28;20032;-79
2022/07/12 01:42:01;;;;;;;0.43;0.20;;;14.40;99.90;;;;;;5043903;28;20500;-79
2022/07/12 01:44:27;;;;;;;0.25;0.10;;;14.40;99.90;;;;;;5047401;28;20033;-80
2022/07/12 01:46:52;;;;;;;1.10;0.30;;;14.40;99.90;;;;;;5044585;28;20033;-80
2022/07/12 01:49:18;;;;;;;0.90;0.32;;;14.40;99.90;;;;;;5044749;28;20036;-80
2022/07/12 01:51:43;;;;;;;0.13;0.10;;;14.40;99.90;;;;;;5046810;28;20712;-79
2022/07/12 01:54:09;;;;;;;0.50;0.20;;;14.40;99.90;;;;;;5043264;28;20039;-80
2022/07/12 01:56:35;;;;;;;0.45;0.10;;;14.40;99.90;;;;;;5045029;28;20047;-80
2022/07/12 01:59:01;;;;;;;0.00;0.00;;;14.40;99.90;;;;;;5041551;28;20175;-80
2022/07/12 02:01:27;;;;;;;0.10;0.00;;;14.30;99.90;;;;;;5045031;28;20137;-80
2022/07/12 02:03:53;;;;;;;0.10;0.10;;;14.20;99.90;;;;;;5028292;28;20127;-79
2022/07/12 02:06:20;;;;;;;0.65;0.30;;;14.30;99.90;;;;;;5038855;28;20539;-79
2022/07/12 02:08:45;;;;;;;0.17;0.10;;;14.30;99.90;;;;;;5045068;28;20047;-79
2022/07/12 02:11:11;;;;;;;0.10;0.10;;;14.20;99.90;;;;;;5041891;28;20037;-80
2022/07/12 02:13:37;;;;;;;0.10;0.10;;;14.10;99.90;;;;;;5042646;28;20071;-80
2022/07/12 02:16:04;;;;;;;0.10;0.10;;;14.10;99.90;;;;;;5045298;28;20792;-80
2022/07/12 02:18:32;;;;;;;0.30;0.10;;;14.00;99.90;;;;;;5038960;28;20071;-80
2022/07/12 02:20:58;;;;;;;0.13;0.10;;;14.00;99.90;;;;;;5029299;28;20044;-80
2022/07/12 02:23:24;;;;;;;0.25;0.10;;;14.00;99.90;;;;;;5045412;28;20040;-80
2022/07/12 02:25:50;;;;;;;0.20;0.13;;;13.90;99.90;;;;;;5045801;28;20075;-80
2022/07/12 02:28:15;;;;;;;0.17;0.17;;;13.90;99.90;;;;;;5042095;28;20114;-80
2022/07/12 02:30:41;;;;;;;0.63;0.22;;;13.80;99.90;;;;;;5044016;28;20029;-80
2022/07/12 02:33:06;;;;;;;0.30;0.10;;;13.80;99.90;;;;;;5026412;28;20112;-80
2022/07/12 02:35:32;;;;;;;0.85;0.30;;;13.80;99.90;;;;;;5043804;28;20379;-80
2022/07/12 02:37:57;;;;;;;1.20;0.38;;;13.80;99.90;;;;;;5043264;28;20047;-79
2022/07/12 02:43:07;;;;;;;0.10;0.10;;;13.80;99.90;;;;;;5044101;28;20049;-80
2022/07/12 02:45:33;;;;;;;0.52;0.15;;;13.80;99.90;;;;;;5043926;28;20044;-79
2022/07/12 02:47:58;;;;;;;1.13;0.60;;;13.80;99.90;;;;;;5021743;28;20457;-80
2022/07/12 02:50:24;;;;;;;0.47;0.20;;;13.80;99.90;;;;;;5044310;28;20128;-80
2022/07/12 02:52:50;;;;;;;0.68;0.22;;;13.70;99.90;;;;;;5026203;28;20049;-80
2022/07/12 02:55:15;;;;;;;1.02;0.50;;;13.70;99.90;;;;;;5044068;28;20123;-80
2022/07/12 02:57:41;;;;;;;0.80;0.28;;;13.70;99.90;;;;;;5043033;28;20041;-80
2022/07/12 03:00:07;;;;;;;0.38;0.30;;;13.60;99.90;;;;;;5041015;28;20422;-80
2022/07/12 03:02:33;;;;;;;0.60;0.20;;;13.70;99.90;;;;;;5044344;28;20037;-80
2022/07/12 03:04:59;;;;;;;1.42;0.30;;;13.60;99.90;;;;;;5043256;28;20044;-80
2022/07/12 03:07:24;;;;;;;0.75;0.32;;;13.70;99.90;;;;;;5045278;28;20033;-80
2022/07/12 03:09:50;;;;;;;0.77;0.30;;;13.60;99.90;;;;;;5044677;28;20033;-80
2022/07/12 03:12:15;;;;;;;0.93;0.45;;;13.60;99.90;;;;;;5040698;28;20207;-79
2022/07/12 03:14:41;;;;;;;0.77;0.25;;;13.50;99.90;;;;;;5057193;28;20044;-79
2022/07/12 03:17:07;;;;;;;0.75;0.30;;;13.50;99.90;;;;;;5043440;28;20596;-80
2022/07/12 03:19:33;;;;;;;2.97;0.40;;;13.50;99.90;;;;;;5040811;28;20033;-79
2022/07/12 03:21:58;;;;;;;1.08;0.40;;;13.40;99.90;;;;;;5043846;28;20125;-79
2022/07/12 03:24:24;;;;;;;1.05;0.50;;;13.50;99.90;;;;;;5044977;28;20041;-79
2022/07/12 03:26:51;;;;;;;2.17;0.93;;;13.40;99.90;;;;;;5042108;28;20037;-79
2022/07/12 03:29:17;;;;;;;0.82;0.35;;;13.30;99.90;;;;;;5044060;28;20170;-79
2022/07/12 03:31:42;;;;;;;1.73;0.57;;;13.30;99.90;;;;;;5044090;28;20133;-79
2022/07/12 03:34:08;;;;;;;0.80;0.40;;;13.40;99.90;;;;;;5041491;28;20044;-79
2022/07/12 03:36:33;;;;;;;1.42;0.60;;;13.40;99.90;;;;;;5042203;28;20547;-79
2022/07/12 03:38:59;;;;;;;1.15;0.40;;;13.40;99.90;;;;;;5043071;28;20032;-79
2022/07/12 03:41:24;;;;;;;0.82;0.30;;;13.40;99.90;;;;;;5041744;28;20666;-79
2022/07/12 03:43:50;;;;;;;0.57;0.32;;;13.30;99.90;;;;;;5041515;28;20049;-79
2022/07/12 03:46:16;;;;;;;0.75;0.43;;;13.30;99.90;;;;;;5039651;28;20044;-79
2022/07/12 03:48:41;;;;;;;1.73;0.70;;;13.30;99.90;;;;;;5023447;28;20407;-80
2022/07/12 03:51:07;;;;;;;1.65;0.60;;;13.20;99.90;;;;;;5023771;28;20143;-80
2022/07/12 03:53:32;;;;;;;1.90;0.80;;;13.20;99.90;;;;;;5038705;28;20025;-80
2022/07/12 03:55:58;;;;;;;0.80;0.30;;;13.20;99.90;;;;;;5039716;28;20124;-79
2022/07/12 03:58:23;;;;;;;1.00;0.60;;;13.20;99.90;;;;;;5041090;28;20037;-79
2022/07/12 04:00:49;;;;;;;1.58;0.90;;;13.20;99.90;;;;;;5040056;28;20052;-79
2022/07/12 04:03:15;;;;;;;1.35;0.60;;;13.30;99.90;;;;;;5041529;28;20037;-79
2022/07/12 04:05:40;;;;;;;1.33;0.63;;;13.30;99.90;;;;;;5043480;28;20172;-79
2022/07/12 04:08:06;;;;;;;1.27;0.52;;;13.30;99.90;;;;;;5036934;28;20036;-79
2022/07/12 04:10:32;;;;;;;1.73;0.60;;;13.30;99.90;;;;;;5026704;28;20086;-79
2022/07/12 04:12:57;;;;;;;1.20;0.55;;;13.40;99.90;;;;;;5037995;28;20049;-79
2022/07/12 04:15:23;;;;;;;1.17;0.75;;;13.40;99.90;;;;;;5026616;28;20044;-79
2022/07/12 04:17:48;;;;;;;1.80;0.70;;;13.40;99.90;;;;;;5039655;28;20029;-79
2022/07/12 04:20:14;;;;;;;2.08;0.60;;;13.50;99.90;;;;;;5039813;28;20061;-79
2022/07/12 04:22:40;;;;;;;1.52;0.50;;;13.50;99.90;;;;;;5040166;28;20060;-79
2022/07/12 04:25:07;;;;;;;0.95;0.50;;;13.50;99.90;;;;;;5044001;28;20045;-79
2022/07/12 04:27:33;;;;;;;1.83;0.70;;;13.60;99.90;;;;;;5043359;28;20044;-79
2022/07/12 04:29:59;;;;;;;1.30;1.00;;;13.50;99.90;;;;;;5041350;28;20112;-79
2022/07/12 04:32:24;;;;;;;0.75;0.40;;;13.60;99.90;;;;;;5039116;28;20518;-79
2022/07/12 04:34:50;;;;;;;1.00;0.50;;;13.60;99.90;;;;;;5027713;28;20029;-79
2022/07/12 04:37:15;;;;;;;0.65;0.30;;;13.60;99.90;;;;;;5042507;28;20066;-79
2022/07/12 04:39:41;;;;;;;5.10;0.63;;;13.70;99.90;;;;;;5027702;28;20479;-79
2022/07/12 04:42:07;;;;;;;1.05;0.45;;;13.70;99.90;;;;;;5025714;28;20119;-79
2022/07/12 04:44:32;;;;;;;2.30;0.73;;;13.80;99.90;;;;;;5043750;28;20040;-80
2022/07/12 04:46:58;;;;;;;1.38;0.60;;;13.80;99.90;;;;;;5045837;28;20037;-79
2022/07/12 04:49:24;;;;;;;1.73;0.50;;;13.80;99.90;;;;;;5039752;28;20033;-80
2022/07/12 04:51:49;;;;;;;1.20;0.45;;;13.90;99.90;;;;;;5045218;28;20037;-80
2022/07/12 04:54:15;;;;;;;0.93;0.50;;;13.90;99.90;;;;;;5045887;28;20030;-75
2022/07/12 04:56:40;;;;;;;0.85;0.43;;;14.00;99.90;;;;;;5040383;28;20090;-80
2022/07/12 04:59:06;;;;;;;0.65;0.38;;;14.00;99.90;;;;;;5045295;28;20045;-80
2022/07/12 05:01:32;;;;;;;1.33;0.70;;;14.10;99.90;;;;;;5042004;28;20048;-80
2022/07/12 05:03:58;;;;;;;2.08;0.85;;;14.20;99.90;;;;;;5044926;28;20490;-81
2022/07/12 05:06:24;;;;;;;1.02;0.40;;;14.20;99.90;;;;;;5044898;28;20037;-80
2022/07/12 05:08:50;;;;;;;0.63;0.22;;;14.30;99.90;;;;;;5044487;28;20048;-79
2022/07/12 05:11:15;;;;;;;2.40;0.60;;;14.30;99.90;;;;;;5044122;28;20088;-79
2022/07/12 05:13:41;;;;;;;0.98;0.55;;;14.30;99.90;;;;;;5043945;28;20482;-79
2022/07/12 05:16:08;;;;;;;1.77;0.40;;;14.30;99.90;;;;;;5038785;28;20041;-81
2022/07/12 05:18:34;;;;;;;2.17;0.80;;;14.40;99.90;;;;;;5044062;28;20041;-80
2022/07/12 05:21:00;;;;;;;0.75;0.43;;;14.50;99.90;;;;;;5044211;28;20475;-81
2022/07/12 05:23:26;;;;;;;0.98;0.40;;;14.50;99.90;;;;;;5026620;28;20041;-79
2022/07/12 05:25:52;;;;;;;0.82;0.30;;;14.50;99.90;;;;;;5025111;28;20517;-79
2022/07/12 05:28:18;;;;;;;1.00;0.52;;;14.50;99.90;;;;;;5046392;28;20025;-79
2022/07/12 05:30:44;;;;;;;1.05;0.50;;;14.60;99.90;;;;;;5045757;28;20031;-78
2022/07/12 05:33:11;;;;;;;1.65;0.63;;;14.60;99.90;;;;;;5047625;28;20379;-79
2022/07/12 05:35:37;;;;;;;1.52;0.50;;;14.60;99.90;;;;;;5044158;28;20509;-78
2022/07/12 05:38:03;;;;;;;1.58;0.90;;;14.60;99.90;;;;;;5041282;28;20049;-80
2022/07/12 05:40:28;;;;;;;0.77;0.50;;;14.70;99.90;;;;;;5028339;28;20041;-79
2022/07/12 05:42:54;;;;;;;1.58;0.55;;;14.70;99.90;;;;;;5030490;28;20044;-80
2022/07/12 05:45:20;;;;;;;1.33;0.68;;;14.80;99.90;;;;;;5047629;28;20063;-79
2022/07/12 05:47:45;;;;;;;1.85;0.88;;;14.80;99.90;;;;;;5044651;28;20025;-79
2022/07/12 05:50:11;;;;;;;10.35;1.67;;;14.90;99.90;;;;;;5044328;28;20033;-80
2022/07/12 05:55:21;;;;;;;2.40;0.90;;;15.10;99.90;;;;;;5047471;28;20045;-80
2022/07/12 05:57:46;;;;;;;2.60;1.17;;;15.30;99.90;;;;;;5043828;28;20040;-80
2022/07/12 06:00:12;;;;;;;2.92;1.33;;;15.40;99.90;;;;;;5044362;28;20064;-80
2022/07/12 06:02:37;;;;;;;1.90;0.95;;;15.60;99.90;;;;;;5047495;28;20068;-79
2022/07/12 06:05:03;;;;;;;2.90;0.90;;;15.70;99.90;;;;;;5045836;28;20041;-79
2022/07/12 06:07:29;;;;;;;3.22;1.25;;;15.80;99.90;;;;;;5043487;28;20086;-76
2022/07/12 06:09:55;;;;;;;2.33;1.17;;;16.00;99.90;;;;;;5042937;28;20032;-79
2022/07/12 06:12:21;;;;;;;2.85;1.45;;;16.00;99.90;;;;;;5046197;28;20091;-79
2022/07/12 06:14:48;;;;;;;2.67;1.13;;;16.20;99.90;;;;;;5043592;28;20076;-81
2022/07/12 06:17:13;;;;;;;2.15;1.15;;;16.20;99.90;;;;;;5041915;28;20067;-80
2022/07/12 06:19:39;;;;;;;2.67;1.20;;;16.40;99.90;;;;;;5044478;28;20039;-80
2022/07/12 06:22:05;;;;;;;2.30;1.05;;;16.40;99.90;;;;;;5041886;28;20295;-79
2022/07/12 06:24:30;;;;;;;1.77;0.95;;;16.50;99.90;;;;;;5043542;28;20060;-79
2022/07/12 06:26:56;;;;;;;1.95;0.95;;;16.60;99.90;;;;;;5060830;28;20502;-79
2022/07/12 06:29:21;;;;;;;2.00;0.88;;;16.70;99.90;;;;;;5046187;28;20040;-79
2022/07/12 06:31:47;;;;;;;2.17;1.10;;;16.70;99.90;;;;;;5040823;28;20029;-77
2022/07/12 06:34:12;;;;;;;3.20;1.35;;;16.90;99.90;;;;;;5046284;28;20036;-76
2022/07/12 06:36:38;;;;;;;2.33;0.90;;;16.90;99.90;;;;;;5043989;28;20044;-77
2022/07/12 06:39:04;;;;;;;1.90;1.15;;;17.10;99.90;;;;;;5046758;28;20115;-78
2022/07/12 06:41:29;;;;;;;2.78;1.10;;;17.10;99.90;;;;;;5044709;28;20104;-79
2022/07/12 06:43:55;;;;;;;1.85;0.98;;;17.20;99.90;;;;;;5027382;28;20453;-80
2022/07/12 06:46:21;;;;;;;0.95;0.50;;;17.30;99.90;;;;;;5039285;28;20111;-79
2022/07/12 06:48:46;;;;;;;1.73;1.00;;;17.40;99.90;;;;;;5040215;28;20275;-80
2022/07/12 06:51:12;;;;;;;1.83;0.80;;;17.50;99.90;;;;;;5022136;28;20063;-80
2022/07/12 06:53:38;;;;;;;2.17;1.00;;;17.60;99.90;;;;;;5038670;28;20064;-78
2022/07/12 06:56:04;;;;;;;3.33;1.38;;;17.70;99.90;;;;;;5033926;28;20473;-81
2022/07/12 06:58:29;;;;;;;2.35;1.02;;;17.80;99.90;;;;;;5040332;28;20664;-80
2022/07/12 07:00:55;;;;;;;2.25;1.00;;;17.90;99.90;;;;;;5039063;28;20490;-80
2022/07/12 07:03:20;;;;;;;5.75;2.13;;;17.90;99.90;;;;;;5036810;28;20036;-80
2022/07/12 07:05:46;;;;;;;1.67;0.80;;;17.80;99.90;;;;;;5038082;28;20449;-78
2022/07/12 07:08:12;;;;;;;2.22;1.00;;;18.00;99.90;;;;;;5039711;28;20037;-80
2022/07/12 07:10:37;;;;;;;1.77;0.80;;;18.00;99.90;;;;;;5036001;28;20033;-80
2022/07/12 07:13:03;;;;;;;1.77;1.00;;;18.10;99.90;;;;;;5041836;28;20093;-80
2022/07/12 07:15:29;;;;;;;2.95;1.20;;;18.20;99.90;;;;;;5039091;28;20432;-81
2022/07/12 07:17:54;;;;;;;2.13;1.10;;;18.30;99.90;;;;;;5036818;28;20079;-80
2022/07/12 07:20:20;;;;;;;3.58;1.20;;;18.30;99.90;;;;;;5040016;28;20508;-80
2022/07/12 07:22:46;;;;;;;3.08;0.95;;;18.40;99.90;;;;;;5022358;28;20071;-80
2022/07/12 07:25:12;;;;;;;1.92;0.82;;;18.40;99.90;;;;;;5042237;28;20041;-82
2022/07/12 07:27:38;;;;;;;2.53;1.20;;;18.40;99.90;;;;;;5037002;28;20055;-81
2022/07/12 07:32:49;;;;;;;1.55;0.73;;;18.30;99.90;;;;;;5055939;28;20037;-80
2022/07/12 07:35:15;;;;;;;2.17;0.98;;;18.40;99.90;;;;;;5040239;28;20084;-81
2022/07/12 07:37:40;;;;;;;2.22;1.00;;;18.40;99.90;;;;;;5034415;28;20161;-81
2022/07/12 07:40:06;;;;;;;2.10;1.00;;;18.40;99.90;;;;;;5036182;28;20076;-80
2022/07/12 07:42:32;;;;;;;3.00;1.10;;;18.50;99.90;;;;;;5034924;28;20052;-80
2022/07/12 07:44:57;;;;;;;2.78;1.05;;;18.50;99.90;;;;;;5035749;28;20049;-80
2022/07/12 07:47:23;;;;;;;3.13;1.25;;;18.60;99.90;;;;;;5035497;28;20041;-80
2022/07/12 07:49:49;;;;;;;2.40;1.10;;;18.70;99.90;;;;;;5050777;28;20064;-81
2022/07/12 07:52:14;;;;;;;2.53;1.23;;;18.80;99.90;;;;;;5038969;28;20032;-80
2022/07/12 07:54:40;;;;;;;1.55;0.95;;;18.90;99.90;;;;;;5035532;28;20087;-81
2022/07/12 07:57:05;;;;;;;1.88;1.00;;;19.00;99.90;;;;;;5038876;28;20040;-81
2022/07/12 07:59:31;;;;;;;1.98;1.05;;;19.00;99.90;;;;;;5032349;28;20127;-82
2022/07/12 08:01:57;;;;;;;1.08;0.70;;;19.10;99.90;;;;;;5032464;28;20040;-78
2022/07/12 08:04:22;;;;;;;1.98;1.10;;;19.10;99.90;;;;;;5023449;28;20061;-82
2022/07/12 08:06:49;;;;;;;1.67;1.05;;;19.20;99.90;;;;;;5033401;28;20037;-82
2022/07/12 08:09:15;;;;;;;1.77;0.80;;;19.20;99.90;;;;;;5040311;28;20040;-83
2022/07/12 08:11:42;;;;;;;1.73;1.00;;;19.20;99.90;;;;;;5040272;28;20055;-83
2022/07/12 08:14:09;;;;;;;2.92;1.08;;;19.30;99.90;;;;;;5041963;28;20123;-81
2022/07/12 08:16:35;;;;;;;1.92;1.10;;;19.40;99.90;;;;;;5043384;28;20472;-81
2022/07/12 08:19:02;;;;;;;2.25;1.35;;;19.50;99.90;;;;;;5041466;28;20067;-82
2022/07/12 08:21:27;;;;;;;1.83;0.95;;;19.60;99.90;;;;;;5041337;28;20090;-82
2022/07/12 08:23:53;;;;;;;1.90;0.80;;;19.60;99.90;;;;;;5040927;28;20044;-81
2022/07/12 08:26:19;;;;;;;2.47;1.05;;;19.60;99.90;;;;;;5042176;28;20049;-82
2022/07/12 08:28:45;;;;;;;2.13;1.08;;;19.70;99.90;;;;;;5019943;28;20087;-83
2022/07/12 08:31:13;;;;;;;1.27;0.80;;;19.70;99.90;;;;;;5040997;28;20429;-82
2022/07/12 08:33:39;;;;;;;1.77;0.98;;;19.80;99.90;;;;;;5042694;28;20036;-82
2022/07/12 08:36:06;;;;;;;3.92;0.95;;;20.00;99.90;;;;;;5043838;28;20063;-82
2022/07/12 08:38:33;;;;;;;6.95;1.02;;;20.00;99.90;;;;;;5042163;28;20055;-81
2022/07/12 08:40:59;;;;;;;2.08;1.10;;;20.10;99.90;;;;;;5024179;28;20068;-82
2022/07/12 08:43:24;;;;;;;2.22;0.82;;;20.10;99.90;;;;;;5018544;28;20135;-81
2022/07/12 08:45:50;;;;;;;1.92;0.98;;;20.20;99.90;;;;;;5038390;28;20044;-80
2022/07/12 08:48:15;;;;;;;2.05;1.00;;;20.20;99.90;;;;;;5038872;28;20540;-80
2022/07/12 08:50:41;;;;;;;1.52;0.82;;;20.20;99.90;;;;;;5038321;28;20119;-79
2022/07/12 08:53:12;;;;;;;2.83;1.10;;;20.20;99.90;;;;;;5043024;28;20302;-80
2022/07/12 08:55:37;;;;;;;2.17;1.13;;;20.30;99.90;;;;;;5034877;28;20267;-80
2022/07/12 08:58:13;;;;;;;1.98;1.15;;;20.30;99.90;;;;;;5039046;28;20470;-80
2022/07/12 09:00:39;;;;;;;2.88;1.60;;;20.40;99.90;;;;;;5039254;28;20162;-80
2022/07/12 09:03:06;;;;;;;2.35;1.27;;;20.40;99.90;;;;;;5021757;28;20154;-73
2022/07/12 09:05:33;;;;;;;2.40;1.30;;;20.50;99.90;;;;;;5041007;28;20549;-82
2022/07/12 09:08:02;;;;;;;2.20;0.90;;;20.50;99.90;;;;;;5037626;28;20544;-82
2022/07/12 09:10:28;;;;;;;3.53;1.58;;;20.60;99.90;;;;;;5037643;28;20037;-82
2022/07/12 09:12:53;;;;;;;2.10;1.10;;;20.60;99.90;;;;;;5036507;28;20053;-83
2022/07/12 09:15:23;;;;;;;1.63;1.00;;;20.70;99.90;;;;;;5035199;28;20044;-82
2022/07/12 09:17:58;;;;;;;2.35;1.27;;;20.70;99.90;;;;;;5052586;28;20060;-83
2022/07/12 09:20:38;;;;;;;2.50;1.00;;;20.80;99.90;;;;;;5038750;28;20052;-82
2022/07/12 09:23:06;;;;;;;2.15;1.23;;;20.90;99.90;;;;;;5040483;28;20052;-82
2022/07/12 09:25:32;;;;;;;2.03;0.98;;;20.90;99.90;;;;;;5039748;28;20052;-83
2022/07/12 09:27:59;;;;;;;1.42;0.90;;;21.00;99.90;;;;;;5040577;28;20041;-84
2022/07/12 09:30:27;;;;;;;2.30;1.15;;;21.00;99.90;;;;;;5039676;28;20033;-83
2022/07/12 09:38:25;;;;;;;2.60;1.20;;;21.20;99.90;;;;;;5053987;28;20486;-83
2022/07/12 09:40:50;;;;;;;1.60;0.85;;;21.20;99.90;;;;;;5038989;28;20033;-80
2022/07/12 09:43:18;;;;;;;2.42;1.25;;;21.30;99.90;;;;;;5038552;28;20032;-84
2022/07/12 09:45:47;;;;;;;2.13;1.13;;;21.30;99.90;;;;;;5043675;28;20538;-82
2022/07/12 09:48:13;;;;;;;2.53;1.23;;;21.50;99.90;;;;;;5038046;28;20409;-79
2022/07/12 09:50:39;;;;;;;2.78;1.40;;;21.50;99.90;;;;;;5022550;28;20569;-83
2022/07/12 09:53:07;;;;;;;1.65;0.90;;;21.50;99.90;;;;;;5030787;28;20041;-82
2022/07/12 09:55:34;;;;;;;2.17;1.33;;;21.40;99.90;;;;;;5039147;28;20466;-83
2022/07/12 09:58:02;;;;;;;1.75;1.00;;;21.40;99.90;;;;;;5039330;28;20651;-83
2022/07/12 10:00:29;;;;;;;2.88;1.33;;;21.50;99.90;;;;;;5057193;28;20047;-82
2022/07/12 10:02:57;;;;;;;2.70;1.35;;;21.50;99.90;;;;;;5037833;28;20478;-74
2022/07/12 10:05:25;;;;;;;1.55;0.80;;;21.60;99.90;;;;;;5036368;28;20398;-86
2022/07/12 10:07:51;;;;;;;1.70;1.00;;;21.60;99.90;;;;;;5018632;28;20079;-82
2022/07/12 10:10:17;;;;;;;2.75;1.50;;;21.60;99.90;;;;;;5036455;28;20041;-85
2022/07/12 10:12:44;;;;;;;2.88;1.58;;;21.60;99.90;;;;;;5034238;28;20049;-84
2022/07/12 10:15:17;;;;;;;3.33;1.30;;;21.80;99.90;;;;;;5036466;28;20512;-83
2022/07/12 10:17:55;;;;;;;2.20;1.20;;;21.80;99.90;;;;;;5016710;28;20045;-82
2022/07/12 10:20:23;;;;;;;2.15;1.00;;;21.80;99.90;;;;;;5038677;28;20029;-83
2022/07/12 10:22:49;;;;;;;2.33;1.23;;;21.80;99.90;;;;;;5040013;28;20033;-83
2022/07/12 10:25:28;;;;;;;1.63;0.90;;;21.80;99.90;;;;;;5035229;28;21368;-84
2022/07/12 10:27:53;;;;;;;1.80;1.00;;;21.80;99.90;;;;;;5036178;28;20480;-82
2022/07/12 10:30:22;;;;;;;2.17;1.20;;;21.80;99.90;;;;;;5035457;28;20676;-83
2022/07/12 10:32:52;;;;;;;1.98;1.10;;;21.90;99.90;;;;;;5034149;28;20044;-83
2022/07/12 10:35:21;;;;;;;2.35;1.20;;;22.00;99.90;;;;;;5040455;28;20041;-83
2022/07/12 10:38:17;;;;;;;2.08;1.20;;;22.10;99.90;;;;;;5037604;28;20068;-85
2022/07/12 10:40:45;;;;;;;2.20;1.23;;;22.20;99.90;;;;;;5031968;28;20188;-83
2022/07/12 10:43:10;;;;;;;1.75;1.08;;;22.30;99.90;;;;;;5035793;28;20040;-83
2022/07/12 10:45:38;;;;;;;1.10;0.55;;;22.40;99.90;;;;;;5035109;28;20438;-83
2022/07/12 10:48:18;;;;;;;1.85;0.85;;;22.40;99.90;;;;;;5033521;28;20045;-77
2022/07/12 10:50:48;;;;;;;1.98;0.90;;;22.50;99.90;;;;;;5031437;28;20489;-83
2022/07/12 10:53:40;;;;;;;1.45;0.80;;;22.50;99.90;;;;;;5033120;28;20495;-83
2022/07/12 10:56:21;;;;;;;3.40;0.80;;;22.50;99.90;;;;;;5032637;28;20053;-82
2022/07/12 10:58:53;;;;;;;1.27;0.60;;;22.50;99.90;;;;;;5053486;28;20109;-82
2022/07/12 11:01:21;;;;;;;1.38;0.60;;;22.60;99.90;;;;;;5029582;28;20083;-82
2022/07/12 11:03:56;;;;;;;1.23;0.70;;;22.60;99.90;;;;;;5017628;28;20048;-82
2022/07/12 11:06:23;;;;;;;2.70;0.90;;;22.70;99.90;;;;;;5054465;28;20087;-83
2022/07/12 11:08:57;;;;;;;1.70;1.08;;;22.70;99.90;;;;;;5038506;28;20120;-82
2022/07/12 11:11:53;;;;;;;1.80;0.68;;;22.90;99.90;;;;;;5018872;28;20064;-83
2022/07/12 11:14:23;;;;;;;1.45;0.70;;;23.00;99.90;;;;;;5035918;28;20045;-82
2022/07/12 11:16:51;;;;;;;1.33;0.65;;;23.00;99.90;;;;;;5020129;28;20537;-83
2022/07/12 11:19:25;;;;;;;1.77;1.00;;;22.90;99.90;;;;;;5036263;28;20234;-83
2022/07/12 11:22:00;;;;;;;2.28;0.50;;;23.00;99.90;;;;;;5036942;28;20072;-82
2022/07/12 11:24:28;;;;;;;1.20;0.60;;;23.10;99.90;;;;;;5036736;28;20513;-83
2022/07/12 11:26:54;;;;;;;1.35;0.80;;;23.10;99.90;;;;;;5018641;28;20032;-82
2022/07/12 11:29:21;;;;;;;1.45;0.68;;;23.10;99.90;;;;;;5035907;28;20033;-83
2022/07/12 11:31:47;;;;;;;2.15;0.80;;;23.10;99.90;;;;;;5034767;28;20079;-82
2022/07/12 11:34:23;;;;;;;1.65;0.85;;;23.10;99.90;;;;;;5039197;28;20041;-82
2022/07/12 11:36:58;;;;;;;2.10;0.90;;;23.10;99.90;;;;;;5036154;28;20106;-83
2022/07/12 11:39:34;;;;;;;1.33;0.60;;;23.20;99.90;;;;;;5032593;28;20044;-83
2022/07/12 11:42:00;;;;;;;2.60;0.50;;;23.20;99.90;;;;;;5030482;28;20635;-83
2022/07/12 11:44:45;;;;;;;2.05;0.93;;;23.30;99.90;;;;;;5022531;28;20090;-83
2022/07/12 11:47:12;;;;;;;2.55;0.90;;;23.30;99.90;;;;;;5041584;28;20071;-83
2022/07/12 11:49:52;;;;;;;2.08;1.05;;;23.40;99.90;;;;;;5039644;28;20234;-76
2022/07/12 11:52:22;;;;;;;0.82;0.60;;;23.40;99.90;;;;;;5035252;28;20040;-82
2022/07/12 11:54:50;;;;;;;1.25;0.70;;;23.40;99.90;;;;;;5021607;28;20042;-81
2022/07/12 11:57:20;;;;;;;0.95;0.40;;;23.50;99.90;;;;;;5023821;28;20037;-82
2022/07/12 11:59:45;;;;;;;0.47;0.30;;;23.50;99.90;;;;;;5041357;28;20076;-83
2022/07/12 12:02:15;;;;;;;0.60;0.40;;;23.60;99.90;;;;;;5037798;28;20149;-82
2022/07/12 12:04:59;;;;;;;0.80;0.38;;;23.60;99.90;;;;;;5046952;28;20473;-83
2022/07/12 12:07:24;;;;;;;1.83;0.65;;;23.70;98.40;;;;;;5049891;28;20041;-83
2022/07/12 12:10:09;;;;;;;0.50;0.30;;;23.80;99.90;;;;;;5038206;28;20059;-83
2022/07/12 12:13:01;;;;;;;0.50;0.40;;;23.90;99.10;;;;;;5034534;28;20461;-83
2022/07/12 12:15:31;;;;;;;1.27;0.40;;;23.80;98.30;;;;;;5036598;28;20057;-83
2022/07/12 12:18:02;;;;;;;0.47;0.20;;;23.90;99.90;;;;;;5038588;28;20048;-82
2022/07/12 12:20:34;;;;;;;0.30;0.30;;;23.90;99.60;;;;;;5036682;28;20048;-82
2022/07/12 12:23:20;;;;;;;1.02;0.50;;;23.90;99.90;;;;;;5038929;28;20025;-82
2022/07/12 12:25:46;;;;;;;0.60;0.30;;;23.90;97.80;;;;;;5039556;28;20402;-82
2022/07/12 12:28:12;;;;;;;2.08;0.38;;;23.90;99.70;;;;;;5039461;28;20041;-83
2022/07/12 12:30:54;;;;;;;0.63;0.35;;;23.90;99.70;;;;;;5024124;28;20044;-82
2022/07/12 12:33:36;;;;;;;0.77;0.40;;;23.90;98.80;;;;;;5037997;28;20455;-82
2022/07/12 12:36:27;;;;;;;1.00;0.50;;;23.90;99.20;;;;;;5039783;28;20041;-82
2022/07/12 12:38:57;;;;;;;0.43;0.32;;;23.80;98.60;;;;;;5019786;28;20037;-82
2022/07/12 12:41:24;;;;;;;0.38;0.28;;;23.90;99.70;;;;;;5021033;28;20439;-82
2022/07/12 12:44:07;;;;;;;0.70;0.40;;;24.00;99.60;;;;;;5031360;28;20040;-82
2022/07/12 12:46:55;;;;;;;0.68;0.35;;;24.00;98.10;;;;;;5021764;28;20482;-82
2022/07/12 12:49:44;;;;;;;2.95;0.65;;;24.10;97.60;;;;;;5038929;28;20064;-81
2022/07/12 12:52:09;;;;;;;0.60;0.40;;;24.20;97.60;;;;;;5037234;28;20105;-82
2022/07/12 12:54:37;;;;;;;0.75;0.30;;;24.20;98.60;;;;;;5016414;28;20041;-82
2022/07/12 12:57:04;;;;;;;0.57;0.28;;;24.20;98.60;;;;;;5036864;28;20045;-83
2022/07/12 12:59:30;;;;;;;0.25;0.22;;;24.20;98.60;;;;;;5039480;28;20047;-82
2022/07/12 13:01:56;;;;;;;0.38;0.30;;;24.20;98.70;;;;;;5020088;28;20041;-83
2022/07/12 13:04:21;;;;;;;0.82;0.40;;;24.30;98.30;;;;;;5032822;28;20100;-83